Time;durP1;ratioP1;P1;durP2;ratioP2;P2;SDS_P1;SDS_P2;PMS_P1;PMS_P2;Temp;Humidity;BMP_temperature;BMP_pressure;BME280_temperature;BME280_humidity;BME280_pressure;Samples;Min_cycle;Max_cycle;Signal;HPM_P1;HPM_P2
2020/08/29 00:02:28;;;;;;;1.19;1.02;;;;;;;22.32;66.30;99275.31;;;;-51
2020/08/29 00:05:28;;;;;;;1.96;1.04;;;;;;;22.31;66.28;99270.20;;;;-51
2020/08/29 00:08:28;;;;;;;1.26;1.13;;;;;;;22.30;66.30;99266.20;;;;-51
2020/08/29 00:11:28;;;;;;;1.25;1.11;;;;;;;22.29;66.33;99270.47;;;;-51
2020/08/29 00:14:28;;;;;;;1.25;1.11;;;;;;;22.29;66.30;99265.50;;;;-51
2020/08/29 00:17:28;;;;;;;1.34;1.18;;;;;;;22.30;66.29;99267.11;;;;-50
2020/08/29 00:20:28;;;;;;;1.25;1.13;;;;;;;22.29;66.33;99277.02;;;;-51
2020/08/29 00:23:28;;;;;;;0.98;0.94;;;;;;;22.28;66.33;99279.88;;;;-51
2020/08/29 00:26:28;;;;;;;1.23;1.06;;;;;;;22.28;66.33;99278.66;;;;-51
2020/08/29 00:29:28;;;;;;;1.19;1.09;;;;;;;22.28;66.32;99278.98;;;;-51
2020/08/29 00:32:28;;;;;;;1.15;1.02;;;;;;;22.27;66.33;99283.25;;;;-51
2020/08/29 00:35:28;;;;;;;1.41;1.10;;;;;;;22.28;66.44;99289.92;;;;-51
2020/08/29 00:38:28;;;;;;;1.27;1.11;;;;;;;22.26;66.31;99290.78;;;;-50
2020/08/29 00:41:28;;;;;;;1.00;1.00;;;;;;;22.26;66.34;99295.59;;;;-51
2020/08/29 00:44:28;;;;;;;1.79;1.16;;;;;;;22.26;66.33;99292.42;;;;-51
2020/08/29 00:47:28;;;;;;;1.51;1.16;;;;;;;22.25;66.34;99297.27;;;;-51
2020/08/29 00:50:28;;;;;;;1.43;1.17;;;;;;;22.25;66.35;99302.33;;;;-51
2020/08/29 00:53:28;;;;;;;1.20;1.10;;;;;;;22.25;66.43;99298.41;;;;-50
2020/08/29 00:56:28;;;;;;;1.31;1.15;;;;;;;22.24;66.37;99296.71;;;;-50
2020/08/29 00:59:28;;;;;;;1.03;1.00;;;;;;;22.24;66.41;99294.42;;;;-51
2020/08/29 01:02:28;;;;;;;1.20;1.10;;;;;;;22.23;66.40;99298.03;;;;-50
2020/08/29 01:05:28;;;;;;;1.13;1.00;;;;;;;22.24;66.44;99302.03;;;;-51
2020/08/29 01:08:28;;;;;;;1.17;1.08;;;;;;;22.23;66.41;99302.53;;;;-50
2020/08/29 01:11:28;;;;;;;1.07;1.00;;;;;;;22.24;66.37;99305.85;;;;-51
2020/08/29 01:14:28;;;;;;;1.25;1.16;;;;;;;22.23;66.34;99306.13;;;;-51
2020/08/29 01:17:28;;;;;;;1.07;1.02;;;;;;;22.23;66.35;99304.66;;;;-51
2020/08/29 01:20:28;;;;;;;1.17;1.10;;;;;;;22.23;66.36;99306.11;;;;-50
2020/08/29 01:23:28;;;;;;;1.30;1.20;;;;;;;22.22;66.38;99312.70;;;;-51
2020/08/29 01:26:29;;;;;;;1.14;1.01;;;;;;;22.22;66.36;99316.55;;;;-51
2020/08/29 01:29:28;;;;;;;1.19;1.10;;;;;;;22.22;66.38;99320.30;;;;-51
2020/08/29 01:32:28;;;;;;;1.07;1.05;;;;;;;22.22;66.36;99312.07;;;;-51
2020/08/29 01:35:28;;;;;;;1.20;1.10;;;;;;;22.22;66.34;99305.63;;;;-51
2020/08/29 01:38:28;;;;;;;1.25;1.15;;;;;;;22.21;66.38;99312.67;;;;-51
2020/08/29 01:41:28;;;;;;;1.25;1.09;;;;;;;22.20;66.32;99315.45;;;;-50
2020/08/29 01:44:28;;;;;;;1.25;1.01;;;;;;;22.21;66.42;99308.36;;;;-50
2020/08/29 01:47:28;;;;;;;1.12;1.00;;;;;;;22.20;66.36;99304.61;;;;-50
2020/08/29 01:50:28;;;;;;;1.25;1.10;;;;;;;22.20;66.41;99305.17;;;;-51
2020/08/29 01:53:28;;;;;;;1.41;1.15;;;;;;;22.20;66.38;99300.05;;;;-51
2020/08/29 01:56:28;;;;;;;1.20;1.10;;;;;;;22.20;66.41;99293.84;;;;-51
2020/08/29 01:59:28;;;;;;;1.25;1.13;;;;;;;22.19;66.33;99297.13;;;;-50
2020/08/29 02:02:28;;;;;;;1.20;1.10;;;;;;;22.19;66.34;99304.95;;;;-51
2020/08/29 02:05:28;;;;;;;1.09;1.03;;;;;;;22.19;66.44;99303.09;;;;-50
2020/08/29 02:08:28;;;;;;;1.00;1.00;;;;;;;22.19;66.41;99298.27;;;;-51
2020/08/29 02:11:28;;;;;;;1.72;1.09;;;;;;;22.18;66.33;99295.92;;;;-51
2020/08/29 02:14:28;;;;;;;1.21;1.06;;;;;;;22.18;66.42;99296.25;;;;-51
2020/08/29 02:17:28;;;;;;;1.09;1.03;;;;;;;22.18;66.39;99299.51;;;;-51
2020/08/29 02:20:28;;;;;;;1.14;1.04;;;;;;;22.18;66.43;99300.58;;;;-51
2020/08/29 02:23:28;;;;;;;1.07;1.04;;;;;;;22.18;66.31;99300.66;;;;-50
2020/08/29 02:26:28;;;;;;;1.57;1.00;;;;;;;22.17;66.32;99301.81;;;;-50
2020/08/29 02:29:28;;;;;;;1.21;1.11;;;;;;;22.18;66.39;99307.02;;;;-51
2020/08/29 02:32:28;;;;;;;0.98;0.98;;;;;;;22.17;66.34;99298.71;;;;-52
2020/08/29 02:35:28;;;;;;;1.29;1.00;;;;;;;22.17;66.37;99303.53;;;;-50
2020/08/29 02:38:28;;;;;;;1.01;0.99;;;;;;;22.17;66.39;99305.02;;;;-50
2020/08/29 02:41:28;;;;;;;1.44;1.03;;;;;;;22.16;66.36;99305.17;;;;-51
2020/08/29 02:44:28;;;;;;;1.06;1.01;;;;;;;22.16;66.48;99302.66;;;;-51
2020/08/29 02:47:28;;;;;;;1.14;1.06;;;;;;;22.16;66.40;99307.30;;;;-51
2020/08/29 02:50:28;;;;;;;1.07;1.01;;;;;;;22.16;66.35;99306.16;;;;-51
2020/08/29 02:53:28;;;;;;;1.62;1.19;;;;;;;22.15;66.39;99303.98;;;;-51
2020/08/29 02:56:28;;;;;;;1.17;1.07;;;;;;;22.16;66.34;99301.11;;;;-51
2020/08/29 02:59:28;;;;;;;1.08;0.97;;;;;;;22.15;66.42;99300.81;;;;-51
2020/08/29 03:02:28;;;;;;;1.22;1.00;;;;;;;22.15;66.42;99297.23;;;;-50
2020/08/29 03:05:28;;;;;;;1.00;1.00;;;;;;;22.15;66.48;99296.73;;;;-51
2020/08/29 03:08:28;;;;;;;1.53;0.96;;;;;;;22.14;66.33;99302.72;;;;-51
2020/08/29 03:11:28;;;;;;;0.97;0.97;;;;;;;22.14;66.38;99299.67;;;;-51
2020/08/29 03:14:28;;;;;;;1.07;1.00;;;;;;;22.14;66.38;99298.45;;;;-51
2020/08/29 03:17:28;;;;;;;1.29;1.00;;;;;;;22.14;66.38;99299.52;;;;-51
2020/08/29 03:20:28;;;;;;;0.98;0.98;;;;;;;22.14;66.37;99299.77;;;;-51
2020/08/29 03:23:28;;;;;;;1.10;1.00;;;;;;;22.13;66.49;99296.69;;;;-51
2020/08/29 03:26:28;;;;;;;1.23;0.97;;;;;;;22.13;66.38;99298.57;;;;-51
2020/08/29 03:29:28;;;;;;;1.10;1.05;;;;;;;22.13;66.47;99300.71;;;;-51
2020/08/29 03:32:28;;;;;;;1.17;1.07;;;;;;;22.12;66.40;99292.31;;;;-51
2020/08/29 03:35:28;;;;;;;1.11;1.01;;;;;;;22.13;66.39;99294.84;;;;-51
2020/08/29 03:38:28;;;;;;;1.53;1.00;;;;;;;22.12;66.39;99283.49;;;;-51
2020/08/29 03:41:28;;;;;;;1.03;0.94;;;;;;;22.12;66.41;99279.66;;;;-51
2020/08/29 03:44:28;;;;;;;1.00;1.00;;;;;;;22.11;66.37;99277.47;;;;-51
2020/08/29 03:47:28;;;;;;;1.10;1.00;;;;;;;22.12;66.37;99280.56;;;;-50
2020/08/29 03:50:28;;;;;;;1.00;1.00;;;;;;;22.11;66.36;99277.56;;;;-51
2020/08/29 03:53:28;;;;;;;1.06;1.02;;;;;;;22.11;66.49;99281.41;;;;-51
2020/08/29 03:56:28;;;;;;;1.00;1.00;;;;;;;22.11;66.42;99284.19;;;;-51
2020/08/29 03:59:28;;;;;;;1.10;1.05;;;;;;;22.10;66.46;99286.56;;;;-51
2020/08/29 04:02:28;;;;;;;0.92;0.92;;;;;;;22.10;66.43;99291.28;;;;-51
2020/08/29 04:05:28;;;;;;;0.90;0.90;;;;;;;22.10;66.43;99291.28;;;;-51
2020/08/29 04:08:28;;;;;;;1.00;0.97;;;;;;;22.09;66.36;99285.91;;;;-51
2020/08/29 04:11:28;;;;;;;1.09;1.03;;;;;;;22.09;66.34;99295.31;;;;-50
2020/08/29 04:14:28;;;;;;;0.87;0.87;;;;;;;22.09;66.47;99294.17;;;;-50
2020/08/29 04:17:28;;;;;;;1.19;1.06;;;;;;;22.10;66.45;99308.19;;;;-51
2020/08/29 04:20:28;;;;;;;0.97;0.97;;;;;;;22.09;66.49;99311.21;;;;-51
2020/08/29 04:25:28;;;;;;;0.90;0.90;;;;;;;22.09;66.36;99320.13;;;;-51
2020/08/29 04:28:28;;;;;;;1.03;1.00;;;;;;;22.09;66.40;99324.69;;;;-51
2020/08/29 04:31:28;;;;;;;0.93;0.93;;;;;;;22.08;66.49;99326.42;;;;-51
2020/08/29 04:34:28;;;;;;;1.05;0.97;;;;;;;22.08;66.51;99333.84;;;;-51
2020/08/29 04:37:28;;;;;;;1.00;0.98;;;;;;;22.08;66.43;99329.38;;;;-51
2020/08/29 04:40:28;;;;;;;0.93;0.93;;;;;;;22.08;66.41;99328.30;;;;-51
2020/08/29 04:43:28;;;;;;;0.91;0.91;;;;;;;22.08;66.48;99322.91;;;;-51
2020/08/29 04:46:28;;;;;;;1.11;1.01;;;;;;;22.08;66.49;99327.09;;;;-51
2020/08/29 04:49:28;;;;;;;0.90;0.90;;;;;;;22.07;66.49;99328.97;;;;-51
2020/08/29 04:52:28;;;;;;;0.94;0.94;;;;;;;22.07;66.50;99330.20;;;;-51
2020/08/29 04:55:28;;;;;;;1.09;1.00;;;;;;;22.07;66.50;99325.94;;;;-51
2020/08/29 04:58:28;;;;;;;2.27;1.50;;;;;;;21.92;63.27;99325.66;;;;-51
2020/08/29 05:01:28;;;;;;;2.55;1.60;;;;;;;21.79;62.65;99328.14;;;;-51
2020/08/29 05:04:28;;;;;;;3.29;1.59;;;;;;;21.65;62.53;99329.91;;;;-51
2020/08/29 05:07:28;;;;;;;1.76;1.50;;;;;;;21.50;62.76;99334.53;;;;-51
2020/08/29 05:10:28;;;;;;;2.67;1.51;;;;;;;21.42;62.97;99337.52;;;;-50
2020/08/29 05:13:28;;;;;;;3.79;1.71;;;;;;;21.30;63.21;99339.05;;;;-51
2020/08/29 05:16:28;;;;;;;2.45;1.75;;;;;;;21.20;63.33;99338.00;;;;-51
2020/08/29 05:19:28;;;;;;;3.24;1.61;;;;;;;21.12;63.53;99343.20;;;;-51
2020/08/29 05:22:28;;;;;;;3.08;1.57;;;;;;;21.07;63.61;99346.16;;;;-51
2020/08/29 05:27:28;;;;;;;1.96;1.55;;;;;;;21.00;63.82;99349.76;;;;-51
2020/08/29 05:30:28;;;;;;;1.71;1.48;;;;;;;20.97;63.79;99359.12;;;;-51
2020/08/29 05:33:28;;;;;;;2.16;1.69;;;;;;;20.93;64.16;99358.77;;;;-51
2020/08/29 05:36:28;;;;;;;1.95;1.69;;;;;;;20.88;64.44;99356.98;;;;-51
2020/08/29 05:39:28;;;;;;;3.31;1.49;;;;;;;20.86;64.36;99356.21;;;;-51
2020/08/29 05:42:28;;;;;;;4.41;1.71;;;;;;;20.81;64.63;99358.15;;;;-51
2020/08/29 05:45:28;;;;;;;2.39;1.60;;;;;;;20.81;64.49;99357.84;;;;-51
2020/08/29 05:48:28;;;;;;;2.21;1.59;;;;;;;20.77;64.80;99359.52;;;;-51
2020/08/29 05:51:28;;;;;;;3.19;1.71;;;;;;;20.75;65.01;99363.13;;;;-51
2020/08/29 05:54:28;;;;;;;4.96;1.49;;;;;;;20.77;65.20;99366.77;;;;-51
2020/08/29 05:57:28;;;;;;;3.45;1.68;;;;;;;20.79;64.96;99360.95;;;;-51
2020/08/29 06:00:28;;;;;;;2.74;1.60;;;;;;;20.75;64.99;99366.31;;;;-51
2020/08/29 06:03:28;;;;;;;7.17;1.91;;;;;;;20.77;65.21;99371.91;;;;-52
2020/08/29 06:06:28;;;;;;;2.68;1.50;;;;;;;20.88;65.27;99375.88;;;;-53
2020/08/29 06:09:28;;;;;;;2.74;1.69;;;;;;;20.98;65.32;99389.88;;;;-53
2020/08/29 06:12:28;;;;;;;3.31;1.45;;;;;;;21.06;65.31;99396.66;;;;-59
2020/08/29 06:15:28;;;;;;;2.63;1.65;;;;;;;21.13;65.25;99392.31;;;;-51
2020/08/29 06:18:28;;;;;;;3.22;1.38;;;;;;;21.18;65.36;99400.18;;;;-52
2020/08/29 06:21:28;;;;;;;2.09;1.49;;;;;;;21.23;65.37;99400.92;;;;-51
2020/08/29 06:24:28;;;;;;;1.88;1.51;;;;;;;21.27;65.19;99406.80;;;;-53
2020/08/29 06:27:28;;;;;;;3.11;1.49;;;;;;;21.32;65.24;99405.09;;;;-52
2020/08/29 06:30:28;;;;;;;4.11;1.47;;;;;;;21.33;64.93;99415.08;;;;-49
2020/08/29 06:33:28;;;;;;;3.07;1.55;;;;;;;21.34;65.10;99415.31;;;;-49
2020/08/29 06:36:28;;;;;;;1.71;1.40;;;;;;;21.35;65.06;99417.91;;;;-49
2020/08/29 06:39:28;;;;;;;2.62;1.58;;;;;;;21.36;65.12;99422.20;;;;-54
2020/08/29 06:42:28;;;;;;;2.37;1.43;;;;;;;21.37;65.16;99424.46;;;;-54
2020/08/29 06:45:28;;;;;;;2.29;1.40;;;;;;;21.37;65.21;99419.75;;;;-53
2020/08/29 06:48:28;;;;;;;3.19;1.44;;;;;;;21.38;65.23;99421.11;;;;-50
2020/08/29 06:51:28;;;;;;;1.77;1.40;;;;;;;21.39;65.29;99424.44;;;;-51
2020/08/29 06:54:28;;;;;;;2.63;1.40;;;;;;;21.40;65.26;99426.05;;;;-54
2020/08/29 06:57:28;;;;;;;2.49;1.41;;;;;;;21.40;65.23;99428.41;;;;-54
2020/08/29 07:00:28;;;;;;;3.13;1.39;;;;;;;21.41;65.30;99433.61;;;;-54
2020/08/29 07:03:28;;;;;;;1.73;1.27;;;;;;;21.42;65.30;99432.95;;;;-55
2020/08/29 07:06:28;;;;;;;1.48;1.38;;;;;;;21.43;65.29;99430.90;;;;-54
2020/08/29 07:09:28;;;;;;;1.45;1.35;;;;;;;21.44;65.33;99435.06;;;;-53
2020/08/29 07:12:28;;;;;;;4.09;1.51;;;;;;;21.44;65.37;99426.41;;;;-54
2020/08/29 07:15:28;;;;;;;2.79;1.35;;;;;;;21.44;65.37;99422.98;;;;-54
2020/08/29 07:18:28;;;;;;;1.71;1.33;;;;;;;21.45;65.38;99422.39;;;;-54
2020/08/29 07:21:28;;;;;;;1.50;1.40;;;;;;;21.46;65.40;99427.77;;;;-54
2020/08/29 07:24:28;;;;;;;1.87;1.35;;;;;;;21.46;65.40;99428.83;;;;-52
2020/08/29 07:27:28;;;;;;;1.79;1.34;;;;;;;21.46;65.40;99431.19;;;;-52
2020/08/29 07:30:28;;;;;;;2.00;1.35;;;;;;;21.47;65.38;99432.45;;;;-51
2020/08/29 07:33:28;;;;;;;2.09;1.40;;;;;;;21.47;65.46;99436.53;;;;-51
2020/08/29 07:36:28;;;;;;;1.49;1.37;;;;;;;21.48;65.42;99432.55;;;;-53
2020/08/29 07:39:28;;;;;;;1.69;1.39;;;;;;;21.48;65.42;99435.06;;;;-58
2020/08/29 07:42:28;;;;;;;1.87;1.30;;;;;;;21.49;65.43;99439.28;;;;-54
2020/08/29 07:45:29;;;;;;;2.00;1.37;;;;;;;21.49;65.42;99445.06;;;;-53
2020/08/29 07:48:28;;;;;;;1.40;1.30;;;;;;;21.49;65.47;99450.75;;;;-54
2020/08/29 07:51:28;;;;;;;1.49;1.39;;;;;;;21.51;65.46;99453.69;;;;-53
2020/08/29 07:54:28;;;;;;;1.41;1.30;;;;;;;21.51;65.47;99458.48;;;;-54
2020/08/29 07:57:28;;;;;;;1.43;1.33;;;;;;;21.51;65.51;99458.73;;;;-53
2020/08/29 08:00:28;;;;;;;1.45;1.35;;;;;;;21.52;65.54;99459.36;;;;-51
2020/08/29 08:03:28;;;;;;;1.36;1.26;;;;;;;21.52;65.43;99457.07;;;;-51
2020/08/29 08:06:28;;;;;;;1.77;1.36;;;;;;;21.53;65.55;99462.45;;;;-51
2020/08/29 08:09:28;;;;;;;1.71;1.30;;;;;;;21.52;65.56;99459.93;;;;-59
2020/08/29 08:12:28;;;;;;;2.73;1.50;;;;;;;21.54;65.55;99458.68;;;;-57
2020/08/29 08:15:28;;;;;;;1.85;1.35;;;;;;;21.57;65.85;99460.91;;;;-53
2020/08/29 08:18:28;;;;;;;2.86;1.30;;;;;;;21.59;65.84;99462.65;;;;-46
2020/08/29 08:21:28;;;;;;;1.90;1.45;;;;;;;21.62;65.85;99457.14;;;;-52
2020/08/29 08:24:28;;;;;;;1.91;1.39;;;;;;;21.64;65.92;99457.67;;;;-58
2020/08/29 08:27:28;;;;;;;2.35;1.40;;;;;;;21.67;66.01;99457.78;;;;-53
2020/08/29 08:30:28;;;;;;;2.37;1.40;;;;;;;21.70;66.01;99458.53;;;;-51
2020/08/29 08:33:28;;;;;;;3.11;1.40;;;;;;;21.72;66.01;99460.03;;;;-51
2020/08/29 08:36:28;;;;;;;2.21;1.49;;;;;;;21.74;65.99;99457.88;;;;-48
2020/08/29 08:39:28;;;;;;;2.07;1.43;;;;;;;21.76;66.00;99453.86;;;;-51
2020/08/29 08:42:28;;;;;;;3.83;1.45;;;;;;;21.77;65.92;99454.66;;;;-56
2020/08/29 08:45:28;;;;;;;2.15;1.39;;;;;;;21.79;66.08;99459.92;;;;-53
2020/08/29 08:48:28;;;;;;;2.09;1.47;;;;;;;21.80;66.10;99457.05;;;;-53
2020/08/29 08:51:28;;;;;;;2.56;1.53;;;;;;;21.82;66.05;99459.36;;;;-54
2020/08/29 08:54:28;;;;;;;2.07;1.40;;;;;;;21.83;66.04;99463.11;;;;-60
2020/08/29 08:57:28;;;;;;;3.68;1.59;;;;;;;21.84;66.05;99456.62;;;;-50
2020/08/29 09:00:29;;;;;;;2.57;1.45;;;;;;;21.85;66.18;99457.27;;;;-47
2020/08/29 09:03:28;;;;;;;1.64;1.39;;;;;;;21.88;66.11;99454.61;;;;-47
2020/08/29 09:06:28;;;;;;;3.24;1.30;;;;;;;21.88;66.02;99447.59;;;;-52
2020/08/29 09:09:28;;;;;;;1.77;1.21;;;;;;;21.88;66.03;99439.41;;;;-52
2020/08/29 09:12:28;;;;;;;3.35;1.43;;;;;;;21.88;66.03;99439.36;;;;-52
2020/08/29 09:15:28;;;;;;;2.33;1.40;;;;;;;21.89;65.87;99440.38;;;;-57
2020/08/29 09:18:28;;;;;;;2.00;1.33;;;;;;;21.89;65.95;99443.15;;;;-54
2020/08/29 09:21:28;;;;;;;2.61;1.37;;;;;;;21.89;65.85;99438.51;;;;-54
2020/08/29 09:24:28;;;;;;;1.45;1.22;;;;;;;21.88;65.83;99428.17;;;;-54
2020/08/29 09:27:28;;;;;;;3.40;1.49;;;;;;;21.87;65.80;99427.87;;;;-57
2020/08/29 09:30:28;;;;;;;2.27;1.33;;;;;;;21.88;65.79;99427.27;;;;-52
2020/08/29 09:33:28;;;;;;;1.70;1.45;;;;;;;21.88;65.71;99415.13;;;;-52
2020/08/29 09:36:28;;;;;;;2.58;1.40;;;;;;;21.89;65.78;99419.34;;;;-49
2020/08/29 09:39:28;;;;;;;2.91;1.41;;;;;;;21.92;65.71;99418.87;;;;-52
2020/08/29 09:42:28;;;;;;;2.55;1.50;;;;;;;21.93;65.69;99414.36;;;;-46
2020/08/29 09:45:28;;;;;;;2.13;1.39;;;;;;;21.96;65.67;99406.98;;;;-49
2020/08/29 09:48:28;;;;;;;3.47;1.31;;;;;;;21.97;65.75;99398.68;;;;-50
2020/08/29 09:51:28;;;;;;;2.54;1.40;;;;;;;21.98;65.62;99399.00;;;;-49
2020/08/29 09:54:28;;;;;;;2.69;1.30;;;;;;;22.00;65.64;99410.22;;;;-59
2020/08/29 09:57:28;;;;;;;2.99;1.31;;;;;;;22.01;65.77;99404.81;;;;-53
2020/08/29 10:00:28;;;;;;;2.11;1.40;;;;;;;22.02;65.61;99408.80;;;;-62
2020/08/29 10:03:28;;;;;;;2.62;1.50;;;;;;;22.01;65.46;99417.13;;;;-45
2020/08/29 10:06:28;;;;;;;3.68;1.40;;;;;;;22.01;65.66;99418.10;;;;-51
2020/08/29 10:09:28;;;;;;;3.89;1.45;;;;;;;22.03;65.59;99430.46;;;;-57
2020/08/29 10:12:28;;;;;;;2.72;1.60;;;;;;;22.05;65.57;99420.90;;;;-52
2020/08/29 10:15:28;;;;;;;2.01;1.47;;;;;;;22.06;65.57;99421.63;;;;-53
2020/08/29 10:18:28;;;;;;;3.81;1.47;;;;;;;22.07;65.56;99420.44;;;;-57
2020/08/29 10:21:28;;;;;;;3.36;1.30;;;;;;;22.07;65.55;99420.09;;;;-49
2020/08/29 10:24:28;;;;;;;2.44;1.59;;;;;;;22.09;65.29;99425.39;;;;-52
2020/08/29 10:27:28;;;;;;;5.09;1.50;;;;;;;22.07;65.53;99419.53;;;;-52
2020/08/29 10:30:28;;;;;;;6.50;1.60;;;;;;;22.07;65.48;99422.72;;;;-48
2020/08/29 10:33:28;;;;;;;2.65;1.39;;;;;;;22.07;65.50;99429.65;;;;-51
2020/08/29 10:36:28;;;;;;;3.07;1.41;;;;;;;22.07;65.41;99439.19;;;;-50
2020/08/29 10:39:28;;;;;;;2.33;1.37;;;;;;;22.07;65.41;99441.58;;;;-51
2020/08/29 10:42:28;;;;;;;2.97;1.42;;;;;;;22.07;65.37;99432.27;;;;-52
2020/08/29 10:45:28;;;;;;;3.82;1.40;;;;;;;22.07;65.33;99434.64;;;;-51
2020/08/29 10:48:28;;;;;;;2.93;1.42;;;;;;;22.07;65.32;99434.78;;;;-48
2020/08/29 10:51:28;;;;;;;3.31;1.47;;;;;;;22.05;65.35;99432.54;;;;-48
2020/08/29 10:54:28;;;;;;;2.56;1.35;;;;;;;22.06;65.36;99438.81;;;;-50
2020/08/29 10:57:28;;;;;;;3.12;1.41;;;;;;;22.05;65.37;99433.45;;;;-50
2020/08/29 11:00:28;;;;;;;3.63;1.38;;;;;;;22.05;65.30;99427.17;;;;-48
2020/08/29 11:03:28;;;;;;;2.25;1.51;;;;;;;22.04;65.34;99423.69;;;;-52
2020/08/29 11:06:28;;;;;;;2.61;1.31;;;;;;;22.03;65.38;99420.34;;;;-52
2020/08/29 11:09:28;;;;;;;3.45;1.41;;;;;;;22.03;65.33;99411.70;;;;-48
2020/08/29 11:12:28;;;;;;;3.11;1.49;;;;;;;22.04;65.32;99426.62;;;;-48
2020/08/29 11:15:28;;;;;;;3.21;1.47;;;;;;;22.03;65.39;99425.19;;;;-54
2020/08/29 11:18:28;;;;;;;1.74;1.30;;;;;;;22.04;65.38;99431.36;;;;-54
2020/08/29 11:21:28;;;;;;;2.37;1.40;;;;;;;22.03;65.43;99430.39;;;;-54
2020/08/29 11:24:28;;;;;;;1.73;1.19;;;;;;;22.04;65.42;99424.11;;;;-54
2020/08/29 11:27:28;;;;;;;2.77;1.50;;;;;;;22.03;65.36;99418.71;;;;-54
2020/08/29 11:30:28;;;;;;;2.61;1.50;;;;;;;22.04;65.43;99419.03;;;;-51
2020/08/29 11:33:28;;;;;;;2.51;1.35;;;;;;;22.04;65.41;99425.58;;;;-48
2020/08/29 11:36:28;;;;;;;2.15;1.30;;;;;;;22.04;65.33;99425.80;;;;-48
2020/08/29 11:39:28;;;;;;;2.87;1.40;;;;;;;22.04;65.34;99432.98;;;;-48
2020/08/29 11:42:28;;;;;;;3.00;1.33;;;;;;;22.05;65.27;99434.12;;;;-48
2020/08/29 11:45:28;;;;;;;1.51;1.21;;;;;;;22.03;65.36;99428.50;;;;-48
2020/08/29 11:48:28;;;;;;;2.74;1.30;;;;;;;22.04;65.30;99433.88;;;;-48
2020/08/29 11:51:28;;;;;;;4.72;1.40;;;;;;;22.04;65.38;99441.47;;;;-48
2020/08/29 11:54:28;;;;;;;2.65;1.35;;;;;;;22.04;65.28;99438.86;;;;-52
2020/08/29 11:57:28;;;;;;;1.49;1.24;;;;;;;22.04;65.27;99442.13;;;;-51
2020/08/29 12:00:29;;;;;;;2.29;1.32;;;;;;;22.04;65.29;99439.94;;;;-51
2020/08/29 12:03:28;;;;;;;1.73;1.29;;;;;;;22.03;65.26;99449.64;;;;-51
2020/08/29 12:06:28;;;;;;;2.01;1.45;;;;;;;22.04;65.29;99453.70;;;;-50
2020/08/29 12:09:28;;;;;;;1.88;1.35;;;;;;;22.04;65.22;99453.97;;;;-48
2020/08/29 12:12:28;;;;;;;1.54;1.31;;;;;;;22.03;65.35;99448.98;;;;-48
2020/08/29 12:15:28;;;;;;;1.30;1.14;;;;;;;22.04;65.34;99455.11;;;;-48
2020/08/29 12:18:28;;;;;;;1.47;1.30;;;;;;;22.03;65.37;99456.26;;;;-48
2020/08/29 12:21:28;;;;;;;1.89;1.30;;;;;;;22.03;65.37;99450.20;;;;-48
2020/08/29 12:24:28;;;;;;;2.25;1.38;;;;;;;22.03;65.35;99452.41;;;;-51
2020/08/29 12:27:28;;;;;;;1.73;1.17;;;;;;;22.03;65.35;99455.91;;;;-54
2020/08/29 12:30:28;;;;;;;2.04;1.29;;;;;;;22.03;65.33;99444.19;;;;-54
2020/08/29 12:33:28;;;;;;;2.09;1.31;;;;;;;22.03;65.32;99443.30;;;;-48
2020/08/29 12:36:28;;;;;;;1.39;1.29;;;;;;;22.04;65.33;99445.56;;;;-48
2020/08/29 12:39:28;;;;;;;1.78;1.25;;;;;;;22.04;65.33;99441.89;;;;-48
2020/08/29 12:42:28;;;;;;;1.89;1.30;;;;;;;22.04;65.28;99450.20;;;;-48
2020/08/29 12:45:28;;;;;;;1.54;1.20;;;;;;;22.03;65.30;99444.66;;;;-51
2020/08/29 12:48:28;;;;;;;1.40;1.30;;;;;;;22.04;65.32;99450.11;;;;-48
2020/08/29 12:51:28;;;;;;;1.35;1.25;;;;;;;22.04;65.29;99452.07;;;;-49
2020/08/29 12:54:28;;;;;;;1.47;1.20;;;;;;;22.05;65.44;99459.31;;;;-53
2020/08/29 12:57:28;;;;;;;1.41;1.29;;;;;;;22.07;65.38;99455.28;;;;-58
2020/08/29 13:00:28;;;;;;;2.59;1.33;;;;;;;22.07;65.31;99455.78;;;;-61
2020/08/29 13:03:28;;;;;;;1.64;1.23;;;;;;;22.08;65.39;99455.66;;;;-60
2020/08/29 13:06:28;;;;;;;2.51;1.21;;;;;;;22.08;65.31;99442.20;;;;-60
2020/08/29 13:09:28;;;;;;;4.19;1.30;;;;;;;22.08;65.23;99442.70;;;;-59
2020/08/29 13:12:28;;;;;;;3.65;1.40;;;;;;;22.08;65.22;99446.94;;;;-59
2020/08/29 13:15:28;;;;;;;2.29;1.30;;;;;;;22.08;65.28;99437.16;;;;-60
2020/08/29 13:18:28;;;;;;;2.97;1.35;;;;;;;22.07;65.24;99433.31;;;;-60
2020/08/29 13:21:28;;;;;;;2.34;1.40;;;;;;;22.08;65.26;99432.08;;;;-50
2020/08/29 13:24:28;;;;;;;1.51;1.29;;;;;;;22.07;65.30;99432.19;;;;-50
2020/08/29 13:27:28;;;;;;;2.37;1.30;;;;;;;22.07;65.33;99425.90;;;;-50
2020/08/29 13:30:28;;;;;;;1.34;1.11;;;;;;;22.07;65.23;99439.13;;;;-50
2020/08/29 13:33:28;;;;;;;2.17;1.25;;;;;;;22.07;65.27;99442.80;;;;-51
2020/08/29 13:36:29;;;;;;;1.74;1.29;;;;;;;22.07;65.26;99430.70;;;;-50
2020/08/29 13:39:29;;;;;;;2.42;1.27;;;;;;;22.07;65.17;99428.59;;;;-50
2020/08/29 13:42:28;;;;;;;1.45;1.25;;;;;;;22.06;65.16;99415.23;;;;-50
2020/08/29 13:45:28;;;;;;;1.51;1.28;;;;;;;22.06;65.18;99410.36;;;;-50
2020/08/29 13:48:28;;;;;;;1.71;1.30;;;;;;;22.06;65.25;99413.86;;;;-50
2020/08/29 13:51:28;;;;;;;1.27;1.17;;;;;;;22.06;65.20;99409.30;;;;-50
2020/08/29 13:54:28;;;;;;;2.11;1.29;;;;;;;22.06;65.23;99411.90;;;;-50
2020/08/29 13:57:28;;;;;;;4.16;1.42;;;;;;;22.06;65.32;99401.78;;;;-55
2020/08/29 14:00:28;;;;;;;3.12;1.30;;;;;;;22.08;65.46;99402.88;;;;-45
2020/08/29 14:03:28;;;;;;;2.19;1.21;;;;;;;22.09;65.51;99392.23;;;;-46
2020/08/29 14:06:28;;;;;;;2.77;1.28;;;;;;;22.09;65.42;99378.77;;;;-57
2020/08/29 14:09:28;;;;;;;2.51;1.30;;;;;;;22.10;65.49;99376.89;;;;-57
2020/08/29 14:12:28;;;;;;;2.49;1.19;;;;;;;22.11;65.44;99377.11;;;;-56
2020/08/29 14:15:28;;;;;;;3.41;1.38;;;;;;;22.12;65.41;99373.90;;;;-57
2020/08/29 14:18:28;;;;;;;3.23;1.23;;;;;;;22.10;65.36;99377.78;;;;-57
2020/08/29 14:21:28;;;;;;;3.07;1.41;;;;;;;22.12;65.40;99374.80;;;;-57
2020/08/29 14:24:28;;;;;;;1.58;1.31;;;;;;;22.11;65.36;99377.20;;;;-57
2020/08/29 14:27:28;;;;;;;1.51;1.20;;;;;;;22.10;65.32;99386.03;;;;-57
2020/08/29 14:30:28;;;;;;;2.85;1.19;;;;;;;22.12;65.33;99390.80;;;;-57
2020/08/29 14:33:28;;;;;;;3.37;1.30;;;;;;;22.11;65.27;99397.18;;;;-57
2020/08/29 14:36:28;;;;;;;1.50;1.26;;;;;;;22.11;65.28;99392.77;;;;-57
2020/08/29 14:39:28;;;;;;;5.87;1.39;;;;;;;22.11;65.35;99401.09;;;;-61
2020/08/29 14:42:28;;;;;;;3.35;1.21;;;;;;;22.12;65.45;99408.26;;;;-51
2020/08/29 14:45:28;;;;;;;3.99;1.35;;;;;;;22.13;65.50;99402.87;;;;-52
2020/08/29 14:48:28;;;;;;;3.68;1.39;;;;;;;22.15;65.54;99398.56;;;;-58
2020/08/29 14:51:28;;;;;;;3.45;1.30;;;;;;;22.16;65.52;99402.28;;;;-57
2020/08/29 14:54:28;;;;;;;2.35;1.31;;;;;;;22.17;65.51;99392.98;;;;-56
2020/08/29 14:57:28;;;;;;;2.70;1.30;;;;;;;22.18;65.51;99404.61;;;;-47
2020/08/29 15:00:28;;;;;;;1.69;1.20;;;;;;;22.18;65.45;99390.09;;;;-47
2020/08/29 15:03:28;;;;;;;2.37;1.19;;;;;;;22.20;65.43;99395.50;;;;-48
2020/08/29 15:06:28;;;;;;;1.48;1.32;;;;;;;22.21;65.42;99393.78;;;;-50
2020/08/29 15:09:28;;;;;;;2.63;1.27;;;;;;;22.23;65.45;99401.76;;;;-57
2020/08/29 15:12:28;;;;;;;2.53;1.19;;;;;;;22.23;65.37;99392.87;;;;-59
2020/08/29 15:15:28;;;;;;;4.49;1.30;;;;;;;22.24;65.33;99390.56;;;;-56
2020/08/29 15:18:28;;;;;;;2.37;1.36;;;;;;;22.24;65.41;99388.58;;;;-59
2020/08/29 15:21:28;;;;;;;5.21;1.54;;;;;;;22.23;65.26;99391.31;;;;-58
2020/08/29 15:24:29;;;;;;;5.63;1.49;;;;;;;22.22;65.32;99393.26;;;;-51
2020/08/29 15:27:28;;;;;;;5.56;1.53;;;;;;;22.21;65.24;99393.06;;;;-52
2020/08/29 15:30:28;;;;;;;4.37;1.39;;;;;;;22.21;65.21;99387.34;;;;-52
2020/08/29 15:33:28;;;;;;;2.99;1.36;;;;;;;22.20;65.20;99384.56;;;;-51
2020/08/29 15:36:28;;;;;;;7.26;1.57;;;;;;;22.19;65.31;99382.55;;;;-45
2020/08/29 15:39:28;;;;;;;3.30;1.41;;;;;;;22.20;65.43;99385.63;;;;-46
2020/08/29 15:42:28;;;;;;;5.16;1.39;;;;;;;22.23;65.31;99387.72;;;;-52
2020/08/29 15:45:28;;;;;;;3.77;1.36;;;;;;;22.24;65.21;99381.98;;;;-49
2020/08/29 15:48:28;;;;;;;6.05;1.55;;;;;;;22.25;65.25;99369.57;;;;-58
2020/08/29 15:51:28;;;;;;;3.05;1.53;;;;;;;22.26;65.21;99357.80;;;;-57
2020/08/29 15:54:28;;;;;;;7.80;1.67;;;;;;;22.26;65.34;99358.45;;;;-57
2020/08/29 15:57:28;;;;;;;3.50;1.53;;;;;;;22.28;65.26;99357.73;;;;-58
2020/08/29 16:00:28;;;;;;;4.20;1.50;;;;;;;22.29;65.27;99358.80;;;;-53
2020/08/29 16:03:28;;;;;;;5.01;1.47;;;;;;;22.30;65.27;99362.09;;;;-48
2020/08/29 16:06:28;;;;;;;4.32;1.81;;;;;;;22.32;65.31;99355.14;;;;-50
2020/08/29 16:09:28;;;;;;;4.94;1.50;;;;;;;22.33;65.37;99358.85;;;;-62
2020/08/29 16:12:29;;;;;;;5.27;1.51;;;;;;;22.33;65.33;99358.38;;;;-48
2020/08/29 16:15:28;;;;;;;5.56;1.39;;;;;;;22.35;65.42;99359.13;;;;-53
2020/08/29 16:18:28;;;;;;;4.21;1.43;;;;;;;22.35;65.42;99360.52;;;;-49
2020/08/29 16:21:28;;;;;;;11.76;1.91;;;;;;;22.36;65.43;99360.73;;;;-48
2020/08/29 16:24:28;;;;;;;6.31;1.60;;;;;;;22.37;64.68;99359.27;;;;-54
2020/08/29 16:27:28;;;;;;;3.56;1.41;;;;;;;22.37;65.25;99354.91;;;;-53
2020/08/29 16:30:28;;;;;;;10.03;1.76;;;;;;;22.38;65.49;99353.77;;;;-55
2020/08/29 16:33:28;;;;;;;2.52;1.40;;;;;;;22.39;65.40;99352.75;;;;-60
2020/08/29 16:36:28;;;;;;;4.99;1.39;;;;;;;22.39;65.42;99348.60;;;;-47
2020/08/29 16:39:28;;;;;;;4.81;1.57;;;;;;;22.41;65.39;99344.46;;;;-52
2020/08/29 16:42:28;;;;;;;4.28;1.51;;;;;;;22.40;65.48;99341.87;;;;-52
2020/08/29 16:45:28;;;;;;;2.72;1.36;;;;;;;22.41;65.43;99346.11;;;;-54
2020/08/29 16:48:28;;;;;;;3.91;1.59;;;;;;;22.43;65.52;99351.11;;;;-62
2020/08/29 16:51:28;;;;;;;4.37;1.59;;;;;;;22.42;65.49;99356.67;;;;-55
2020/08/29 16:54:28;;;;;;;3.79;1.43;;;;;;;22.43;65.57;99360.91;;;;-59
2020/08/29 16:57:28;;;;;;;3.80;1.41;;;;;;;22.43;65.55;99368.48;;;;-57
2020/08/29 17:00:28;;;;;;;6.10;1.54;;;;;;;22.41;65.42;99372.88;;;;-56